createdAt,value
2022-10-01T00:00:22.896Z,89.92
2022-10-01T00:02:25.062Z,91.03
2022-10-01T00:04:27.628Z,90.96
2022-10-01T00:06:29.621Z,91.06
2022-10-01T00:08:32.324Z,91.67
2022-10-01T00:10:34.188Z,93.05
2022-10-01T00:12:36.171Z,91.71
2022-10-01T00:14:39.260Z,92.33
2022-10-01T00:16:41.319Z,91.49
2022-10-01T00:18:44.428Z,91.94
2022-10-01T00:20:46.354Z,91.26
2022-10-01T00:22:48.304Z,90.98
2022-10-01T00:24:50.267Z,91.06
2022-10-01T00:26:52.237Z,92.33
2022-10-01T00:28:59.781Z,91.67
2022-10-01T00:31:01.836Z,91.02
2022-10-01T00:33:03.923Z,91.31
2022-10-01T00:35:09.562Z,91.21
2022-10-01T00:37:11.583Z,91.75
2022-10-01T00:39:13.633Z,92.43
2022-10-01T00:41:16.081Z,91.36
2022-10-01T00:43:23.151Z,91.70
2022-10-01T00:45:25.104Z,91.79
2022-10-01T00:47:41.046Z,92.29
2022-10-01T00:49:43.042Z,91.58
2022-10-01T00:51:49.105Z,92.62
2022-10-01T00:53:51.309Z,92.42
2022-10-01T00:55:56.233Z,92.51
2022-10-01T00:57:58.218Z,92.50
2022-10-01T01:00:02.196Z,93.10
2022-10-01T01:02:04.285Z,93.77
2022-10-01T01:04:16.548Z,92.82
2022-10-01T01:06:18.850Z,93.30
2022-10-01T01:08:20.833Z,93.68
2022-10-01T01:10:32.937Z,93.58
2022-10-01T01:13:05.177Z,93.96
2022-10-01T01:15:24.260Z,93.07
2022-10-01T01:17:38.817Z,92.87
2022-10-01T01:20:11.392Z,94.30
2022-10-01T01:22:13.561Z,94.38
2022-10-01T01:24:43.959Z,95.75
2022-10-01T01:26:58.215Z,94.85
2022-10-01T01:29:11.374Z,95.14
2022-10-01T01:31:16.257Z,95.04
2022-10-01T01:33:20.553Z,94.53
2022-10-01T01:35:34.956Z,94.91
2022-10-01T01:37:45.267Z,94.36
2022-10-01T01:39:50.319Z,94.98
2022-10-01T01:41:55.757Z,93.55
2022-10-01T01:44:01.041Z,93.60
2022-10-01T01:46:04.900Z,93.76
2022-10-01T01:48:07.124Z,93.33
2022-10-01T01:50:09.441Z,92.96
2022-10-01T01:52:17.352Z,93.01
2022-10-01T01:54:20.020Z,93.11
2022-10-01T01:56:21.908Z,93.91
2022-10-01T01:58:26.193Z,93.81
2022-10-01T02:00:28.528Z,93.72
2022-10-01T02:02:33.327Z,92.62
2022-10-01T02:04:42.812Z,93.74
2022-10-01T02:07:03.784Z,93.08
2022-10-01T02:09:20.433Z,93.92
2022-10-01T02:11:26.292Z,93.74
2022-10-01T02:13:55.296Z,93.57
2022-10-01T02:16:49.081Z,94.75
2022-10-01T02:19:05.616Z,94.91
2022-10-01T02:21:35.687Z,95.37
2022-10-01T02:23:51.451Z,95.07
2022-10-01T02:25:58.072Z,95.52
2022-10-01T02:28:03.832Z,95.31
2022-10-01T02:30:07.998Z,95.48
2022-10-01T02:32:10.220Z,96.34
2022-10-01T02:34:19.967Z,95.92
2022-10-01T02:36:22.277Z,96.10
2022-10-01T02:38:24.440Z,95.39
2022-10-01T02:40:27.227Z,95.58
2022-10-01T02:42:29.189Z,94.77
2022-10-01T02:44:40.340Z,94.20
2022-10-01T02:47:07.821Z,95.05
2022-10-01T02:49:09.872Z,95.34
2022-10-01T02:51:37.894Z,95.67
2022-10-01T02:53:44.239Z,96.79
2022-10-01T02:55:46.216Z,96.32
2022-10-01T02:57:48.215Z,96.78
2022-10-01T02:59:51.470Z,97.24
2022-10-01T03:01:53.577Z,97.10
2022-10-01T03:03:55.666Z,97.15
2022-10-01T03:05:57.646Z,96.36
2022-10-01T03:07:59.633Z,97.17
2022-10-01T03:10:03.212Z,96.29
2022-10-01T03:12:06.677Z,95.69
2022-10-01T03:14:10.828Z,96.58
2022-10-01T03:16:12.796Z,96.59
2022-10-01T03:18:14.796Z,97.86
2022-10-01T03:20:16.823Z,98.00
2022-10-01T03:22:22.538Z,97.89
2022-10-01T03:24:24.829Z,96.58
2022-10-01T03:26:26.822Z,96.59
2022-10-01T03:28:28.842Z,96.79
2022-10-01T03:30:30.844Z,95.83
2022-10-01T03:32:33.230Z,96.53
2022-10-01T03:34:35.216Z,96.12
2022-10-01T03:36:37.983Z,96.80
2022-10-01T03:38:39.879Z,97.19
2022-10-01T03:40:41.825Z,96.03
2022-10-01T03:42:43.760Z,96.71
2022-10-01T03:44:45.788Z,96.24
2022-10-01T03:46:47.797Z,96.84
2022-10-01T03:48:50.712Z,96.50
2022-10-01T03:50:57.428Z,95.72
2022-10-01T03:53:00.253Z,96.17
2022-10-01T03:55:02.313Z,96.21
2022-10-01T03:57:04.312Z,96.48
2022-10-01T03:59:06.477Z,96.75
2022-10-01T04:01:08.436Z,96.90
2022-10-01T04:03:11.155Z,96.73
2022-10-01T04:05:13.127Z,97.85
2022-10-01T04:07:15.127Z,97.19
2022-10-01T04:09:17.126Z,96.86
2022-10-01T04:11:19.194Z,96.96
2022-10-01T04:13:21.154Z,96.61
2022-10-01T04:15:23.457Z,96.39
2022-10-01T04:17:25.494Z,97.04
2022-10-01T04:19:27.490Z,96.95
2022-10-01T04:21:29.444Z,97.04
2022-10-01T04:23:31.430Z,96.77
2022-10-01T04:25:33.436Z,97.42
2022-10-01T04:27:35.419Z,97.87
2022-10-01T04:29:40.231Z,97.53
2022-10-01T04:31:42.493Z,96.78
2022-10-01T04:33:44.758Z,97.23
2022-10-01T04:35:46.982Z,97.42
2022-10-01T04:37:55.561Z,98.43
2022-10-01T04:39:57.523Z,97.87
2022-10-01T04:41:59.548Z,97.15
2022-10-01T04:44:01.584Z,97.87
2022-10-01T04:46:03.577Z,97.96
2022-10-01T04:48:05.671Z,97.28
2022-10-01T04:50:08.063Z,97.09
2022-10-01T04:52:10.052Z,96.90
2022-10-01T04:54:12.007Z,97.35
2022-10-01T04:56:13.950Z,97.77
2022-10-01T04:58:15.923Z,97.47
2022-10-01T05:00:20.719Z,97.65
2022-10-01T05:02:22.794Z,97.79
2022-10-01T05:04:24.827Z,97.82
2022-10-01T05:06:26.852Z,98.49
2022-10-01T05:08:29.377Z,97.74
2022-10-01T05:10:31.566Z,97.41
2022-10-01T05:12:34.137Z,97.03
2022-10-01T05:14:36.110Z,97.12
2022-10-01T05:16:38.149Z,97.82
2022-10-01T05:18:43.553Z,97.66
2022-10-01T05:20:45.672Z,97.39
2022-10-01T05:22:49.064Z,98.11
2022-10-01T05:24:51.931Z,98.29
2022-10-01T05:26:54.377Z,97.95
2022-10-01T05:28:56.376Z,97.52
2022-10-01T05:31:02.463Z,97.91
2022-10-01T05:33:04.937Z,97.77
2022-10-01T05:35:08.280Z,98.47
2022-10-01T05:37:10.992Z,98.53
2022-10-01T05:39:12.945Z,99.94
2022-10-01T05:41:14.931Z,100.00
2022-10-01T05:43:18.701Z,99.21
2022-10-01T05:45:23.009Z,99.57
2022-10-01T05:47:25.208Z,99.62
2022-10-01T05:49:27.281Z,100.00
2022-10-01T05:51:30.300Z,100.00
2022-10-01T05:53:32.868Z,99.94
2022-10-01T05:55:35.007Z,100.00
2022-10-01T05:57:37.095Z,100.00
2022-10-01T05:59:39.077Z,100.00
2022-10-01T06:01:41.107Z,100.00
2022-10-01T06:03:44.220Z,100.00
2022-10-01T06:05:46.239Z,100.00
2022-10-01T06:07:49.228Z,100.00
2022-10-01T06:09:51.198Z,100.00
2022-10-01T06:11:53.214Z,100.00
2022-10-01T06:13:55.155Z,100.00
2022-10-01T06:15:57.160Z,100.00
2022-10-01T06:18:03.006Z,100.00
2022-10-01T06:20:05.574Z,100.00
2022-10-01T06:22:07.565Z,100.00
2022-10-01T06:24:09.512Z,100.00
2022-10-01T06:26:11.597Z,100.00
2022-10-01T06:28:14.885Z,100.00
2022-10-01T06:30:16.996Z,100.00
2022-10-01T06:32:19.853Z,99.88
2022-10-01T06:34:21.840Z,99.79
2022-10-01T06:36:23.831Z,99.67
2022-10-01T06:38:26.434Z,99.18
2022-10-01T06:40:29.625Z,99.63
2022-10-01T06:42:31.609Z,99.73
2022-10-01T06:44:33.583Z,98.72
2022-10-01T06:46:35.585Z,98.75
2022-10-01T06:48:37.553Z,98.33
2022-10-01T06:50:39.501Z,98.09
2022-10-01T06:52:50.651Z,97.64
2022-10-01T06:54:52.632Z,97.50
2022-10-01T06:56:54.581Z,97.45
2022-10-01T06:58:56.615Z,97.05
2022-10-01T07:01:01.475Z,96.96
2022-10-01T07:03:06.608Z,96.83
2022-10-01T07:05:09.315Z,96.66
2022-10-01T07:07:11.196Z,96.96
2022-10-01T07:09:13.137Z,96.86
2022-10-01T07:11:16.268Z,95.82
2022-10-01T07:13:20.290Z,95.25
2022-10-01T07:15:25.725Z,94.74
2022-10-01T07:17:27.699Z,94.57
2022-10-01T07:19:31.833Z,94.62
2022-10-01T07:21:34.028Z,93.82
2022-10-01T07:23:36.156Z,93.75
2022-10-01T07:25:39.328Z,93.54
2022-10-01T07:27:41.367Z,93.33
2022-10-01T07:29:43.324Z,92.91
2022-10-01T07:31:45.395Z,92.51
2022-10-01T07:33:48.317Z,92.07
2022-10-01T07:35:50.342Z,91.16
2022-10-01T07:37:53.665Z,90.52
2022-10-01T07:39:55.625Z,89.96
2022-10-01T07:41:57.745Z,89.74
2022-10-01T07:43:59.687Z,89.14
2022-10-01T07:46:03.607Z,88.31
2022-10-01T07:48:05.886Z,87.38
2022-10-01T07:50:08.283Z,87.29
2022-10-01T07:52:13.295Z,86.45
2022-10-01T07:54:15.776Z,85.98
2022-10-01T07:56:17.752Z,85.58
2022-10-01T07:58:24.013Z,85.55
2022-10-01T08:00:26.798Z,84.10
2022-10-01T08:02:28.821Z,84.22
2022-10-01T08:04:49.542Z,84.15
2022-10-01T08:06:53.319Z,84.56
2022-10-01T08:08:55.288Z,84.35
2022-10-01T08:10:57.260Z,83.50
2022-10-01T08:13:08.197Z,81.99
2022-10-01T08:15:15.311Z,82.03
2022-10-01T08:17:17.244Z,81.87
2022-10-01T08:19:19.227Z,80.84
2022-10-01T08:21:21.203Z,79.98
2022-10-01T08:23:23.194Z,79.53
2022-10-01T08:25:26.001Z,80.55
2022-10-01T08:27:28.178Z,79.71
2022-10-01T08:29:30.166Z,79.43
2022-10-01T08:31:32.561Z,78.63
2022-10-01T08:33:35.012Z,78.13
2022-10-01T08:35:39.613Z,76.46
2022-10-01T08:37:41.565Z,76.86
2022-10-01T08:39:43.575Z,77.24
2022-10-01T08:41:50.236Z,75.42
2022-10-01T08:43:52.208Z,75.40
2022-10-01T08:45:55.690Z,75.86
2022-10-01T08:48:05.947Z,73.56
2022-10-01T08:50:49.595Z,71.92
2022-10-01T08:53:02.991Z,72.58
2022-10-01T08:55:18.251Z,71.62
2022-10-01T08:57:24.626Z,70.69
2022-10-01T08:59:42.474Z,70.02
2022-10-01T09:01:44.623Z,70.80
2022-10-01T09:03:46.670Z,68.33
2022-10-01T09:06:20.210Z,66.72
2022-10-01T09:08:45.253Z,66.44
2022-10-01T09:10:53.769Z,67.73
2022-10-01T09:13:15.698Z,68.88
2022-10-01T09:15:28.641Z,65.91
2022-10-01T09:17:49.707Z,62.38
2022-10-01T09:20:27.067Z,61.67
2022-10-01T09:22:57.402Z,63.23
2022-10-01T09:25:24.528Z,61.87
2022-10-01T09:27:27.429Z,62.54
2022-10-01T09:29:41.726Z,62.42
2022-10-01T09:31:45.395Z,62.17
2022-10-01T09:34:12.527Z,60.73
2022-10-01T09:36:45.491Z,59.99
2022-10-01T09:39:04.226Z,59.76
2022-10-01T09:41:07.733Z,59.63
2022-10-01T09:43:09.991Z,60.71
2022-10-01T09:45:14.247Z,58.89
2022-10-01T09:47:21.239Z,57.11
2022-10-01T09:49:39.738Z,55.25
2022-10-01T09:51:50.469Z,55.18
2022-10-01T09:54:10.966Z,59.30
2022-10-01T09:56:29.916Z,55.49
2022-10-01T09:58:31.918Z,58.75
2022-10-01T10:00:34.183Z,58.58
2022-10-01T10:02:49.850Z,57.76
2022-10-01T10:05:13.177Z,57.69
2022-10-01T10:07:17.974Z,59.78
2022-10-01T10:09:24.164Z,59.56
2022-10-01T10:11:29.260Z,60.26
2022-10-01T10:13:35.285Z,59.52
2022-10-01T10:15:57.649Z,58.54
2022-10-01T10:18:12.908Z,57.50
2022-10-01T10:20:43.155Z,56.02
2022-10-01T10:22:45.189Z,56.31
2022-10-01T10:24:47.151Z,58.30
2022-10-01T10:26:55.223Z,55.34
2022-10-01T10:28:57.197Z,56.98
2022-10-01T10:30:59.171Z,56.36
2022-10-01T10:33:05.651Z,53.75
2022-10-01T10:35:13.750Z,54.80
2022-10-01T10:37:28.097Z,54.95
2022-10-01T10:39:32.911Z,56.18
2022-10-01T10:41:35.023Z,56.27
2022-10-01T10:43:37.350Z,56.47
2022-10-01T10:45:39.914Z,57.28
2022-10-01T10:47:47.614Z,56.58
2022-10-01T10:50:03.531Z,56.12
2022-10-01T10:52:20.077Z,55.46
2022-10-01T10:54:34.030Z,55.83
2022-10-01T10:56:36.429Z,58.38
2022-10-01T10:58:40.362Z,56.76
2022-10-01T11:00:50.182Z,57.08
2022-10-01T11:03:04.848Z,57.43
2022-10-01T11:05:31.787Z,57.14
2022-10-01T11:07:33.836Z,57.53
2022-10-01T11:09:55.697Z,57.35
2022-10-01T11:12:05.282Z,57.79
2022-10-01T11:14:51.741Z,57.50
2022-10-01T11:17:18.678Z,57.72
2022-10-01T11:20:02.552Z,58.29
2022-10-01T11:22:35.451Z,58.59
2022-10-01T11:24:40.867Z,59.52
2022-10-01T11:27:04.701Z,59.82
2022-10-01T11:29:25.471Z,60.07
2022-10-01T11:31:40.457Z,60.02
2022-10-01T11:34:08.354Z,59.44
2022-10-01T11:36:26.719Z,59.94
2022-10-01T11:38:46.064Z,59.67
2022-10-01T11:40:55.645Z,59.52
2022-10-01T11:43:02.982Z,59.81
2022-10-01T11:45:15.746Z,60.02
2022-10-01T11:47:23.164Z,61.05
2022-10-01T11:49:57.084Z,61.98
2022-10-01T11:52:14.927Z,62.20
2022-10-01T11:54:21.399Z,63.24
2022-10-01T11:56:47.494Z,63.39
2022-10-01T11:59:04.493Z,63.28
2022-10-01T12:01:24.042Z,63.74
2022-10-01T12:03:30.344Z,63.74
2022-10-01T12:05:32.389Z,63.37
2022-10-01T12:07:55.209Z,64.90
2022-10-01T12:10:17.379Z,64.69
2022-10-01T12:12:55.613Z,64.70
2022-10-01T12:15:10.718Z,64.89
2022-10-01T12:17:45.511Z,64.59
2022-10-01T12:19:50.954Z,64.08
2022-10-01T12:22:19.363Z,64.49
2022-10-01T12:24:31.314Z,64.45
2022-10-01T12:26:48.873Z,64.71
2022-10-01T12:29:00.513Z,64.77
2022-10-01T12:31:14.864Z,64.69
2022-10-01T12:33:52.357Z,64.73
2022-10-01T12:36:13.215Z,65.01
2022-10-01T12:38:52.043Z,64.12
2022-10-01T12:41:24.462Z,64.92
2022-10-01T12:43:50.485Z,66.84
2022-10-01T12:46:02.956Z,66.70
2022-10-01T12:48:22.427Z,67.41
2022-10-01T12:50:51.249Z,67.11
2022-10-01T12:53:34.448Z,67.80
2022-10-01T12:56:01.383Z,68.57
2022-10-01T12:58:25.845Z,68.68
2022-10-01T13:00:31.968Z,67.96
2022-10-01T13:02:56.274Z,68.84
2022-10-01T13:05:08.422Z,68.97
2022-10-01T13:07:39.648Z,68.57
2022-10-01T13:10:05.394Z,68.82
2022-10-01T13:12:26.481Z,68.94
2022-10-01T13:14:29.192Z,68.75
2022-10-01T13:16:45.049Z,69.31
2022-10-01T13:18:59.828Z,68.78
2022-10-01T13:21:29.392Z,68.41
2022-10-01T13:24:01.549Z,68.23
2022-10-01T13:26:20.261Z,66.97
2022-10-01T13:29:04.072Z,66.56
2022-10-01T13:31:14.922Z,66.28
2022-10-01T13:33:26.726Z,65.85
2022-10-01T13:35:56.522Z,65.67
2022-10-01T13:37:58.922Z,65.18
2022-10-01T13:40:01.304Z,64.76
2022-10-01T13:42:04.355Z,64.54
2022-10-01T13:44:09.065Z,62.82
2022-10-01T13:46:11.162Z,62.36
2022-10-01T13:48:34.757Z,61.93
2022-10-01T13:50:38.293Z,62.49
2022-10-01T13:52:41.186Z,62.93
2022-10-01T13:54:50.153Z,62.62
2022-10-01T13:56:52.104Z,63.04
2022-10-01T13:58:54.076Z,63.32
2022-10-01T14:00:58.040Z,63.82
2022-10-01T14:03:28.894Z,64.07
2022-10-01T14:05:39.712Z,64.77
2022-10-01T14:07:41.649Z,65.02
2022-10-01T14:09:46.425Z,64.88
2022-10-01T14:12:21.145Z,65.21
2022-10-01T14:14:50.308Z,65.72
2022-10-01T14:16:52.268Z,66.36
2022-10-01T14:18:54.235Z,67.15
2022-10-01T14:21:04.593Z,67.48
2022-10-01T14:23:14.214Z,68.18
2022-10-01T14:26:00.603Z,68.77
2022-10-01T14:28:29.908Z,69.05
2022-10-01T14:31:02.412Z,69.05
2022-10-01T14:33:49.190Z,69.45
2022-10-01T14:36:10.345Z,70.12
2022-10-01T14:38:19.602Z,70.33
2022-10-01T14:40:23.635Z,70.55
2022-10-01T14:42:25.616Z,70.85
2022-10-01T14:44:47.072Z,71.92
2022-10-01T14:46:51.324Z,71.80
2022-10-01T14:49:00.062Z,72.45
2022-10-01T14:51:07.350Z,72.90
2022-10-01T14:53:15.691Z,73.37
2022-10-01T14:55:21.842Z,73.34
2022-10-01T14:57:36.258Z,73.98
2022-10-01T14:59:40.040Z,74.22
2022-10-01T15:01:42.032Z,74.05
2022-10-01T15:03:44.281Z,75.31
2022-10-01T15:05:47.527Z,74.69
2022-10-01T15:07:49.593Z,75.17
2022-10-01T15:09:51.632Z,75.52
2022-10-01T15:11:53.606Z,75.75
2022-10-01T15:14:10.816Z,76.80
2022-10-01T15:16:20.882Z,76.81
2022-10-01T15:18:23.038Z,76.81
2022-10-01T15:20:25.128Z,76.82
2022-10-01T15:22:28.498Z,77.07
2022-10-01T15:24:44.393Z,77.31
2022-10-01T15:26:47.758Z,77.33
2022-10-01T15:28:49.976Z,77.30
2022-10-01T15:30:51.928Z,77.74
2022-10-01T15:32:53.872Z,78.11
2022-10-01T15:34:58.291Z,78.40
2022-10-01T15:37:00.880Z,78.07
2022-10-01T15:39:04.699Z,78.53
2022-10-01T15:41:30.499Z,78.61
2022-10-01T15:43:36.091Z,78.89
2022-10-01T15:45:38.135Z,79.02
2022-10-01T15:47:51.840Z,79.22
2022-10-01T15:50:11.888Z,79.90
2022-10-01T15:52:33.395Z,79.98
2022-10-01T15:54:35.494Z,79.82
2022-10-01T15:56:37.570Z,80.13
2022-10-01T15:58:46.405Z,81.09
2022-10-01T16:00:48.810Z,80.88
2022-10-01T16:02:50.887Z,81.25
2022-10-01T16:04:56.140Z,80.97
2022-10-01T16:06:58.150Z,81.58
2022-10-01T16:09:03.325Z,81.30
2022-10-01T16:11:14.304Z,82.24
2022-10-01T16:13:32.346Z,82.75
2022-10-01T16:15:34.291Z,82.27
2022-10-01T16:17:39.500Z,82.22
2022-10-01T16:19:41.442Z,82.73
2022-10-01T16:21:43.468Z,82.45
2022-10-01T16:23:50.008Z,82.38
2022-10-01T16:25:52.003Z,83.62
2022-10-01T16:28:05.404Z,83.09
2022-10-01T16:30:07.269Z,83.41
2022-10-01T16:32:13.306Z,88.77
2022-10-01T16:34:17.746Z,92.67
2022-10-01T16:36:20.744Z,94.26
2022-10-01T16:38:22.703Z,96.14
2022-10-01T16:40:29.926Z,96.71
2022-10-01T16:42:34.145Z,98.45
2022-10-01T16:44:38.685Z,98.92
2022-10-01T16:46:41.157Z,98.89
2022-10-01T16:48:43.102Z,99.64
2022-10-01T16:50:47.843Z,98.19
2022-10-01T16:52:56.216Z,100.00
2022-10-01T16:54:58.183Z,100.00
2022-10-01T16:57:00.297Z,100.00
2022-10-01T16:59:02.251Z,100.00
2022-10-01T17:01:13.328Z,100.00
2022-10-01T17:03:17.881Z,100.00
2022-10-01T17:05:28.582Z,100.00
2022-10-01T17:07:30.540Z,100.00
2022-10-01T17:09:32.893Z,100.00
2022-10-01T17:11:34.965Z,100.00
2022-10-01T17:13:36.887Z,100.00
2022-10-01T17:15:38.931Z,100.00
2022-10-01T17:17:40.910Z,100.00
2022-10-01T17:19:42.852Z,100.00
2022-10-01T17:21:45.338Z,100.00
2022-10-01T17:23:52.566Z,100.00
2022-10-01T17:25:55.368Z,100.00
2022-10-01T17:27:57.851Z,100.00
2022-10-01T17:29:59.864Z,100.00
2022-10-01T17:32:01.873Z,100.00
2022-10-01T17:34:04.637Z,100.00
2022-10-01T17:36:07.333Z,100.00
2022-10-01T17:38:09.824Z,100.00
2022-10-01T17:40:12.287Z,100.00
2022-10-01T17:42:16.702Z,100.00
2022-10-01T17:44:18.639Z,100.00
2022-10-01T17:46:20.711Z,100.00
2022-10-01T17:48:22.745Z,100.00
2022-10-01T17:50:24.848Z,100.00
2022-10-01T17:52:26.883Z,100.00
2022-10-01T17:54:28.910Z,100.00
2022-10-01T17:56:32.965Z,100.00
2022-10-01T17:58:35.458Z,100.00
2022-10-01T18:00:37.570Z,100.00
2022-10-01T18:02:42.507Z,100.00
2022-10-01T18:04:44.732Z,100.00
2022-10-01T18:06:48.855Z,100.00
2022-10-01T18:08:55.673Z,100.00
2022-10-01T18:11:11.202Z,100.00
2022-10-01T18:13:13.186Z,100.00
2022-10-01T18:15:15.588Z,100.00
2022-10-01T18:17:18.074Z,100.00
2022-10-01T18:21:42.015Z,100.00
2022-10-01T18:23:43.992Z,100.00
2022-10-01T18:25:45.958Z,100.00
2022-10-01T18:27:50.169Z,100.00
2022-10-01T18:29:52.317Z,100.00
2022-10-01T18:32:02.360Z,100.00
2022-10-01T18:34:31.013Z,100.00
2022-10-01T18:36:47.929Z,100.00
2022-10-01T18:38:50.741Z,100.00
2022-10-01T18:40:57.281Z,100.00
2022-10-01T18:43:17.716Z,100.00
2022-10-01T18:45:57.288Z,100.00
2022-10-01T18:48:21.873Z,100.00
2022-10-01T18:50:40.746Z,100.00
2022-10-01T18:52:54.076Z,100.00
2022-10-01T18:55:30.541Z,100.00
2022-10-01T18:57:58.327Z,100.00
2022-10-01T19:00:23.514Z,100.00
2022-10-01T19:03:17.963Z,100.00
2022-10-01T19:05:58.827Z,100.00
2022-10-01T19:08:51.508Z,100.00
2022-10-01T19:11:18.670Z,100.00
2022-10-01T19:13:36.172Z,100.00
2022-10-01T19:15:54.235Z,100.00
2022-10-01T19:18:16.266Z,100.00
2022-10-01T19:20:33.795Z,100.00
2022-10-01T19:23:09.668Z,100.00
2022-10-01T19:25:17.382Z,100.00
2022-10-01T19:27:49.611Z,100.00
2022-10-01T19:30:10.953Z,100.00
2022-10-01T19:32:22.052Z,100.00
2022-10-01T19:34:46.692Z,100.00
2022-10-01T19:36:56.255Z,100.00
2022-10-01T19:39:01.108Z,100.00
2022-10-01T19:41:15.054Z,100.00
2022-10-01T19:43:51.267Z,100.00
2022-10-01T19:46:16.559Z,100.00
2022-10-01T19:48:36.279Z,100.00
2022-10-01T19:50:41.451Z,100.00
2022-10-01T19:52:45.783Z,100.00
2022-10-01T19:54:54.326Z,100.00
2022-10-01T19:57:06.743Z,100.00
2022-10-01T19:59:12.588Z,100.00
2022-10-01T20:01:20.972Z,100.00
2022-10-01T20:03:32.838Z,100.00
2022-10-01T20:05:45.196Z,100.00
2022-10-01T20:07:54.887Z,100.00
2022-10-01T20:10:11.646Z,100.00
2022-10-01T20:12:53.956Z,100.00
2022-10-01T20:15:30.911Z,100.00
2022-10-01T20:17:53.768Z,100.00
2022-10-01T20:20:32.025Z,100.00
2022-10-01T20:22:40.278Z,100.00
2022-10-01T20:24:59.325Z,100.00
2022-10-01T20:27:28.073Z,100.00
2022-10-01T20:30:08.786Z,100.00
2022-10-01T20:32:39.813Z,100.00
2022-10-01T20:35:09.082Z,100.00
2022-10-01T20:37:44.830Z,100.00
2022-10-01T20:40:00.492Z,100.00
2022-10-01T20:42:03.735Z,100.00
2022-10-01T20:44:05.882Z,100.00
2022-10-01T20:46:33.618Z,100.00
2022-10-01T20:48:37.869Z,100.00
2022-10-01T20:50:47.739Z,100.00
2022-10-01T20:53:25.531Z,100.00
2022-10-01T20:55:32.961Z,100.00
2022-10-01T20:57:42.196Z,100.00
2022-10-01T20:59:46.276Z,100.00
2022-10-01T21:02:02.583Z,100.00
2022-10-01T21:04:20.303Z,100.00
2022-10-01T21:06:26.779Z,100.00
2022-10-01T21:09:04.751Z,100.00
2022-10-01T21:11:37.066Z,100.00
2022-10-01T21:13:45.912Z,100.00
2022-10-01T21:15:52.985Z,100.00
2022-10-01T21:18:01.006Z,100.00
2022-10-01T21:20:24.522Z,100.00
2022-10-01T21:22:43.637Z,100.00
2022-10-01T21:25:10.054Z,100.00
2022-10-01T21:28:27.921Z,100.00
2022-10-01T21:30:40.125Z,100.00
2022-10-01T21:33:08.953Z,100.00
2022-10-01T21:36:05.814Z,100.00
2022-10-01T21:38:29.773Z,100.00
2022-10-01T21:40:54.159Z,100.00
2022-10-01T21:43:07.709Z,100.00
2022-10-01T21:45:18.735Z,100.00
2022-10-01T21:47:45.252Z,100.00
2022-10-01T21:49:50.087Z,100.00
2022-10-01T21:52:33.542Z,100.00
2022-10-01T21:54:38.263Z,100.00
2022-10-01T21:56:53.170Z,100.00
2022-10-01T21:59:52.190Z,100.00
2022-10-01T22:02:05.288Z,100.00
2022-10-01T22:05:23.478Z,100.00
2022-10-01T22:07:48.183Z,100.00
2022-10-01T22:10:02.710Z,100.00
2022-10-01T22:12:06.108Z,100.00
2022-10-01T22:14:20.380Z,100.00
2022-10-01T22:16:22.634Z,100.00
2022-10-01T22:18:45.475Z,100.00
2022-10-01T22:20:48.152Z,100.00
2022-10-01T22:22:50.790Z,100.00
2022-10-01T22:24:53.557Z,100.00
2022-10-01T22:26:59.858Z,100.00
2022-10-01T22:29:02.061Z,100.00
2022-10-01T22:31:05.492Z,100.00
2022-10-01T22:33:20.542Z,100.00
2022-10-01T22:35:30.591Z,100.00
2022-10-01T22:38:02.819Z,100.00
2022-10-01T22:40:18.362Z,100.00
2022-10-01T22:42:32.978Z,100.00
2022-10-01T22:44:34.935Z,100.00
2022-10-01T22:46:58.621Z,100.00
2022-10-01T22:49:11.785Z,100.00
2022-10-01T22:51:51.371Z,100.00
2022-10-01T22:54:21.678Z,100.00
2022-10-01T22:56:43.351Z,100.00
2022-10-01T22:59:00.527Z,100.00
2022-10-01T23:01:27.008Z,100.00
2022-10-01T23:03:37.030Z,100.00
2022-10-01T23:06:01.975Z,100.00
2022-10-01T23:08:03.813Z,100.00
2022-10-01T23:10:24.472Z,100.00
2022-10-01T23:13:07.296Z,100.00
2022-10-01T23:15:37.048Z,100.00
2022-10-01T23:17:48.668Z,100.00
2022-10-01T23:20:21.916Z,100.00
2022-10-01T23:22:44.644Z,100.00
2022-10-01T23:25:21.631Z,100.00
2022-10-01T23:27:55.224Z,100.00
2022-10-01T23:30:12.038Z,100.00
2022-10-01T23:32:51.203Z,100.00
2022-10-01T23:35:16.525Z,100.00
2022-10-01T23:37:53.839Z,100.00
2022-10-01T23:40:08.900Z,100.00
2022-10-01T23:42:51.931Z,100.00
2022-10-01T23:45:11.956Z,100.00
2022-10-01T23:47:22.347Z,100.00
2022-10-01T23:49:26.619Z,100.00
2022-10-01T23:51:40.029Z,100.00
2022-10-01T23:54:03.017Z,100.00
2022-10-01T23:56:46.464Z,100.00
2022-10-01T23:59:21.586Z,100.00
